Главная страница
METAR-TAF:

METAR-TAF

Аэропорты :

Кристианстад, Швеция

широта: 55-55N, долгота: 014-05E, высота над уровнем моря: 23 м

Текущие метеонаблюдения

Эта сводка был подготовлена 1 час и 8 минут назад, в 17:50 UTC
Ветер 3 Узел от юго-юго-восточный
Температура 7°C
Влажность 100%
Давление 1032 hPa
Видимость: 3700 м
Рассеянная облачность на высоте 700 фута
дымка

METAR: ESMK 151750Z 16003KT 3700 BR BKN007 07/07 Q1032

Время: 19:58 (18:58 UTC)

Прогноз

Эта сводка был подготовлена 1 час и 51 минут назад, в 17:07 UTC
Прогноз действительный с 15-го 18 UTC до 15-го 21 UTC
Ветер 5 Узел от юго-восточный
Видимость 10 км и более
Отдельные облака на высоте 1500 фута
временами
С 15-го 18 UTC до 15-го 21 UTC
Видимость: 4000 м
Рассеянная облачность на высоте 800 фута
дымка

TAF: ESMK 151707Z 1518/1521 14005KT 9999 SCT015 TEMPO 1518/1521 4000 BR BKN008

Метеонаблюдения и прогнозы для более 4000 аэропортов (сводки METAR и TAF).

Имеющиеся станции представлены на карте желтыми и красными точками.

Чтобы увидеть название станции, наведите на нее мышь.

Затем щелкните, чтобы увидеть метеонаблюдения и метеопрогнозы.

Управление картой: чтобы увеличить масштаб, щелкните зеленые кнопки с черным крестиком; чтобы уменьшить масштаб, щелкните зеленую кнопку с тире; для просмотра соседних карт щелкайте зеленые стрелки.


METAR-TAF: